Gray Army Air Field Fort Lewis,Tacoma US
ICAO: KGRF
IATA: GRF
Category: Medium
Scheduled Services: No

Elevation: 300 ft
TransAlt. 18000 ft.

Airport Communications:
SEATTLE APP/DEP:120.1
ATIS:124.65
CTAF:119.325
GND/CLNC DEL:121.9
AR OPS:36.1
ARNG OPS:36.55
OPS:32.3
PMSV METRO:134.1
BULLSEYE RDO:36.7
TWR:119.325

KGRF Zoom In..

Runways:

(A) RW 15 length 6125 ft width 150 ft
ILS 108.30 / hdg 151

(B) RW 33 length 6125 ft width 150 ft
---- / hdg 331

Location; KGRF
Day. 26 / Time. 03.58 Zulu
* Altimeter: 30.04
* Temperature: 15° c. 59°f.
* Wind from: 210° Speed 06 kn.
Dewpoint: 07° c.
Visibility: 10 Statute Miles.
Clouds: Scattered 5500 ft.

KGRF 260358Z 21006KT 10SM SCT055 15/07 A3004 RMK AO2A SLP177 T01470070


Wind From 210°
Speed 06 kn.

 
 
jpsmedia.com for Web Design SOUNDCLOUD worldairports.se 2018   terms of use